Time;durP1;ratioP1;P1;durP2;ratioP2;P2;SDS_P1;SDS_P2;PMS_P1;PMS_P2;Temp;Humidity;BMP_temperature;BMP_pressure;BME280_temperature;BME280_humidity;BME280_pressure;Samples;Min_cycle;Max_cycle;Signal;HPM_P1;HPM_P2
2021/09/21 09:39:41;;;;;;;7.03;6.33;;;20.60;42.00;;;17.62;40.81;99022.75;5088195;27;20614;-77
2021/09/21 09:42:11;;;;;;;6.53;6.03;;;19.20;43.30;;;17.08;42.25;99010.00;5090677;28;20470;-77
2021/09/21 09:44:40;;;;;;;8.13;7.33;;;18.30;44.00;;;16.60;42.92;99012.50;5087775;28;20480;-76
2021/09/21 09:47:08;;;;;;;8.53;7.70;;;17.70;43.90;;;16.08;44.47;99021.16;5087414;28;20456;-77
2021/09/21 09:49:38;;;;;;;8.57;7.50;;;17.30;44.50;;;15.63;45.67;99020.31;5089363;28;20539;-77
2021/09/21 09:52:08;;;;;;;8.03;7.43;;;16.80;44.90;;;14.89;46.43;99015.44;5083812;28;20479;-77
2021/09/21 09:54:37;;;;;;;7.90;7.20;;;16.30;44.80;;;15.12;46.68;99022.22;5083670;28;21038;-76
2021/09/21 09:57:08;;;;;;;8.00;7.40;;;16.20;45.10;;;14.94;47.41;99018.34;5084613;28;20487;-77
2021/09/21 09:59:37;;;;;;;8.37;7.50;;;16.00;45.20;;;14.94;47.20;99022.94;5085646;28;20474;-77
2021/09/21 10:02:04;;;;;;;7.83;7.13;;;15.90;45.40;;;15.43;46.01;99028.66;5085849;28;20470;-78
2021/09/21 10:04:32;;;;;;;7.90;7.30;;;16.30;45.30;;;15.82;45.68;99039.41;5084752;28;20475;-78
2021/09/21 10:07:00;;;;;;;8.40;7.50;;;16.60;45.30;;;16.44;44.11;99024.91;5089061;28;20528;-78
2021/09/21 10:09:27;;;;;;;7.20;6.60;;;17.10;45.10;;;16.31;42.89;99023.19;5087898;28;20488;-78
2021/09/21 10:11:57;;;;;;;8.17;7.47;;;17.30;44.10;;;16.43;43.20;99023.25;5086201;28;20451;-79
2021/09/21 10:14:27;;;;;;;7.93;7.13;;;17.40;44.40;;;16.60;42.81;99007.06;5086769;28;20536;-78
2021/09/21 10:16:56;;;;;;;7.83;7.13;;;17.50;44.00;;;16.76;41.76;99010.22;5080390;28;20495;-78
2021/09/21 10:19:24;;;;;;;7.27;6.67;;;17.60;43.60;;;16.59;40.76;99016.31;5082030;28;20469;-78
2021/09/21 10:21:54;;;;;;;6.97;6.33;;;17.60;43.10;;;16.76;42.04;99021.16;5082904;28;20469;-78
2021/09/21 10:24:34;;;;;;;7.90;7.27;;;17.60;43.80;;;16.86;40.98;99024.13;5082555;28;20575;-80
2021/09/21 10:27:04;;;;;;;6.90;6.30;;;17.70;43.50;;;16.43;41.29;99043.16;5087131;28;20474;-81
2021/09/21 10:29:33;;;;;;;6.33;5.83;;;17.50;42.90;;;16.26;41.27;99032.06;5085021;28;20448;-82
2021/09/21 10:32:00;;;;;;;8.10;7.30;;;17.20;43.00;;;16.02;41.45;99039.25;5083166;28;20448;-73
2021/09/21 10:34:27;;;;;;;7.17;6.67;;;17.00;43.20;;;16.01;42.53;99040.31;5090150;28;20470;-77
2021/09/21 10:37:02;;;;;;;7.80;6.60;;;16.90;43.20;;;15.78;43.06;99044.47;5088692;28;20513;-80
2021/09/21 10:39:29;;;;;;;6.70;6.00;;;16.70;43.50;;;15.66;42.81;99030.75;5087165;28;20978;-79
2021/09/21 10:42:00;;;;;;;7.60;6.90;;;16.60;43.50;;;15.55;43.40;99040.50;5084562;28;20452;-79
2021/09/21 10:44:28;;;;;;;8.00;7.30;;;16.50;43.40;;;15.45;43.93;99037.44;5083524;28;20468;-79
2021/09/21 10:46:59;;;;;;;7.50;6.90;;;16.40;44.00;;;15.53;44.11;99048.03;5086384;28;20463;-79
2021/09/21 10:49:35;;;;;;;6.73;6.23;;;16.40;44.10;;;15.29;43.39;99041.53;5088613;28;20529;-79
2021/09/21 10:52:05;;;;;;;7.70;7.00;;;16.30;43.40;;;15.18;42.96;99039.56;5070757;28;20530;-79
2021/09/21 10:54:37;;;;;;;6.90;6.30;;;16.20;43.00;;;15.18;43.53;99039.56;5071197;28;20613;-78
2021/09/21 10:57:07;;;;;;;7.10;6.40;;;16.10;43.50;;;15.38;43.12;99033.91;5073606;28;20526;-79
2021/09/21 10:59:34;;;;;;;7.30;6.60;;;16.30;43.30;;;15.46;42.01;99025.50;5072770;28;20468;-79
2021/09/21 11:02:06;;;;;;;7.80;7.00;;;16.40;43.00;;;15.51;42.56;99028.38;5073572;28;20548;-79
2021/09/21 11:04:42;;;;;;;6.70;6.20;;;16.40;42.90;;;15.72;41.25;99024.41;5074056;28;20575;-79
2021/09/21 11:07:12;;;;;;;7.60;6.90;;;16.60;42.70;;;15.93;41.74;99035.13;5068085;28;20456;-80
2021/09/21 11:09:39;;;;;;;7.40;6.10;;;16.80;43.10;;;16.30;40.58;99029.69;5074311;28;20448;-80
2021/09/21 11:12:09;;;;;;;7.53;6.67;;;17.10;42.60;;;16.51;40.73;99024.81;5073129;28;20479;-85
2021/09/21 11:14:38;;;;;;;7.73;7.13;;;17.30;42.70;;;16.60;39.52;99023.44;5071284;28;20536;-79
2021/09/21 11:17:08;;;;;;;6.80;6.27;;;17.50;42.40;;;16.41;39.17;99025.38;5073893;28;20498;-79
2021/09/21 11:19:37;;;;;;;6.50;6.10;;;17.40;41.90;;;16.49;40.38;99022.31;5074519;28;20460;-78
2021/09/21 11:22:08;;;;;;;6.60;6.10;;;17.40;42.40;;;16.62;40.14;99023.22;5072350;28;20543;-79
2021/09/21 11:24:37;;;;;;;7.73;6.90;;;17.50;42.70;;;16.51;39.46;99035.75;5087095;28;20467;-79
2021/09/21 11:27:08;;;;;;;6.70;6.20;;;17.50;42.10;;;16.35;38.75;99027.13;5073571;28;20460;-79
2021/09/21 11:29:38;;;;;;;6.23;5.73;;;17.40;41.60;;;16.50;39.05;99028.63;5071252;28;20456;-78
2021/09/21 11:32:18;;;;;;;6.43;5.93;;;17.40;41.60;;;16.86;37.93;99021.41;5072975;28;20496;-78
2021/09/21 11:34:47;;;;;;;7.03;6.43;;;17.60;41.40;;;16.82;39.14;99017.47;5073142;28;20476;-79
2021/09/21 11:37:14;;;;;;;7.03;6.43;;;17.80;41.90;;;17.09;37.72;99014.38;5072681;28;20953;-77
2021/09/21 11:39:41;;;;;;;6.90;6.30;;;18.00;41.40;;;16.61;38.35;99021.53;5072842;28;20480;-78
2021/09/21 11:42:08;;;;;;;7.07;6.47;;;17.60;40.90;;;16.40;39.67;99021.81;5072394;28;20452;-78
2021/09/21 11:44:40;;;;;;;6.77;6.17;;;17.50;41.90;;;16.39;38.83;99022.88;5086287;28;20464;-82
2021/09/21 11:47:07;;;;;;;6.90;6.30;;;17.30;41.40;;;16.74;38.96;99023.25;5079831;28;20464;-77
2021/09/21 11:49:35;;;;;;;7.27;6.57;;;17.50;41.90;;;16.80;38.85;99019.59;5071158;28;20456;-80
2021/09/21 11:52:05;;;;;;;7.13;6.63;;;17.60;41.60;;;16.63;38.65;99017.53;5063428;28;20492;-80
2021/09/21 11:54:33;;;;;;;7.50;6.90;;;17.60;41.30;;;16.87;38.69;99017.59;5068654;28;20474;-82
2021/09/21 11:57:00;;;;;;;6.97;6.27;;;17.70;41.70;;;17.26;37.98;99018.09;5067500;28;20458;-80
2021/09/21 11:59:28;;;;;;;6.90;6.30;;;18.00;41.90;;;17.01;37.88;99014.72;5068752;28;20964;-81
2021/09/21 12:01:58;;;;;;;9.33;7.43;;;18.00;41.20;;;16.90;38.59;99016.31;5068452;28;20471;-79
2021/09/21 12:04:25;;;;;;;7.23;6.63;;;17.90;41.70;;;17.21;38.36;99012.53;5073030;28;20482;-79
2021/09/21 12:06:53;;;;;;;7.23;6.73;;;18.10;42.00;;;16.96;38.84;98994.38;5064270;28;20476;-80
2021/09/21 12:09:21;;;;;;;7.23;6.63;;;18.00;41.70;;;16.65;39.16;99009.94;5068614;28;20484;-79
2021/09/21 12:11:48;;;;;;;7.50;6.63;;;17.70;41.70;;;16.66;37.94;99000.69;5063936;28;20869;-79
2021/09/21 12:14:18;;;;;;;6.83;6.23;;;17.60;41.20;;;16.46;37.55;99005.59;5067369;28;20481;-74
2021/09/21 12:16:51;;;;;;;7.37;6.77;;;17.50;40.40;;;16.46;37.60;99000.16;5064785;28;20453;-81
2021/09/21 12:19:19;;;;;;;7.20;6.67;;;17.50;40.70;;;16.39;38.10;99016.59;5062181;28;20481;-79
2021/09/21 12:21:47;;;;;;;7.93;7.30;;;17.40;41.20;;;16.39;38.23;99006.50;5064029;28;20463;-79
2021/09/21 12:24:16;;;;;;;6.47;5.97;;;17.30;41.10;;;16.48;37.41;99011.66;5061918;28;20473;-79
2021/09/21 12:26:43;;;;;;;6.53;6.10;;;17.30;40.60;;;16.78;36.85;99005.38;5063040;28;20540;-80
2021/09/21 12:29:10;;;;;;;6.67;6.17;;;17.50;40.80;;;16.39;37.93;99003.78;5064853;28;20536;-80
2021/09/21 12:31:38;;;;;;;7.27;6.63;;;17.50;40.60;;;16.58;37.17;99017.38;5065035;28;20835;-79
2021/09/21 12:34:14;;;;;;;6.70;6.20;;;17.50;40.50;;;16.87;36.92;99012.16;5067882;28;20476;-80
2021/09/21 12:36:44;;;;;;;11.37;6.93;;;17.60;40.60;;;17.17;36.87;99024.13;5065248;28;20460;-78
2021/09/21 12:39:17;;;;;;;7.80;6.90;;;17.90;40.70;;;17.13;38.01;99012.84;5056850;28;20557;-72
2021/09/21 12:41:47;;;;;;;9.10;6.50;;;17.90;41.30;;;16.88;38.87;99016.53;5064993;28;20541;-75
2021/09/21 12:44:21;;;;;;;7.30;6.60;;;17.90;41.70;;;16.49;39.28;99021.50;5069906;28;20477;-84
2021/09/21 12:46:51;;;;;;;6.43;5.93;;;17.50;41.60;;;16.47;39.36;99035.34;5093265;28;20437;-86
2021/09/21 12:49:19;;;;;;;7.40;6.80;;;17.40;41.60;;;16.10;39.94;99029.94;5091016;28;20931;-86
2021/09/21 12:51:48;;;;;;;6.97;6.47;;;17.20;41.80;;;16.25;39.90;99048.63;5090860;28;20456;-86
2021/09/21 12:54:20;;;;;;;7.30;6.80;;;17.20;41.90;;;16.16;39.30;99047.28;5088916;28;20476;-86
2021/09/21 12:56:50;;;;;;;7.23;6.63;;;17.00;41.50;;;16.19;39.40;99039.47;5092359;28;20451;-85
2021/09/21 12:59:20;;;;;;;7.37;6.67;;;17.00;41.60;;;16.28;39.57;99034.53;5092056;28;20444;-87
2021/09/21 13:01:48;;;;;;;8.50;7.70;;;17.10;41.70;;;16.50;38.94;99028.63;5089474;28;24007;-84
2021/09/21 13:04:16;;;;;;;8.27;7.53;;;17.40;41.40;;;16.68;38.67;99031.31;5087501;28;20468;-84
2021/09/21 13:06:46;;;;;;;9.70;7.00;;;17.60;41.40;;;16.93;38.14;99030.34;5081095;28;20453;-84
2021/09/21 13:09:13;;;;;;;7.10;6.37;;;17.70;41.20;;;17.23;37.96;99036.84;5062711;28;20465;-83
2021/09/21 13:11:42;;;;;;;7.03;6.53;;;18.00;41.80;;;17.09;38.37;99025.31;5068222;28;20561;-79
2021/09/21 13:14:09;;;;;;;7.33;6.73;;;18.00;41.50;;;17.17;38.37;99026.88;5070196;28;20508;-81
2021/09/21 13:16:38;;;;;;;7.90;7.30;;;18.00;41.60;;;16.89;39.29;99031.84;5073699;28;20940;-88
2021/09/21 13:19:06;;;;;;;7.77;7.17;;;17.90;42.00;;;16.62;40.09;99028.66;5066962;28;20560;-83
2021/09/21 13:21:33;;;;;;;7.80;7.20;;;17.70;42.30;;;16.41;40.50;99015.28;5061493;28;20452;-84
2021/09/21 13:24:00;;;;;;;6.77;6.23;;;17.50;42.40;;;16.55;40.62;99017.84;5064800;28;20515;-78
2021/09/21 13:26:27;;;;;;;8.30;7.60;;;17.40;42.50;;;16.49;40.46;99018.78;5056746;28;20475;-78
2021/09/21 13:28:55;;;;;;;7.43;6.80;;;17.50;42.60;;;16.25;41.75;99032.25;5063974;28;20558;-79
2021/09/21 13:31:23;;;;;;;7.53;6.90;;;17.30;42.90;;;16.27;39.50;99031.00;5066715;28;20496;-81
2021/09/21 13:33:51;;;;;;;8.00;7.30;;;17.30;41.80;;;16.26;40.18;99018.41;5065492;28;20499;-79
2021/09/21 13:36:19;;;;;;;7.90;7.30;;;17.20;42.30;;;16.64;40.08;99029.25;5062164;28;20465;-80
2021/09/21 13:38:46;;;;;;;6.53;5.97;;;17.40;42.60;;;16.62;39.70;99015.03;5066152;28;20544;-80
2021/09/21 13:41:14;;;;;;;8.33;7.53;;;17.60;42.20;;;16.53;39.79;99009.06;5062017;28;20492;-81
2021/09/21 13:43:41;;;;;;;7.00;6.50;;;17.50;42.30;;;16.33;40.37;99012.03;5066522;28;20457;-79
2021/09/21 13:46:10;;;;;;;7.27;6.67;;;17.30;42.10;;;16.07;41.17;99014.84;5064516;28;20459;-80
2021/09/21 13:48:37;;;;;;;6.87;6.33;;;17.20;42.40;;;16.28;42.19;99010.00;5063848;28;20475;-81
2021/09/21 13:51:04;;;;;;;6.83;6.23;;;17.20;43.40;;;16.53;41.66;99011.78;5068542;28;20461;-80
2021/09/21 13:53:31;;;;;;;6.60;6.10;;;17.40;43.10;;;16.80;39.43;99006.78;5070871;28;20571;-80
2021/09/21 13:55:59;;;;;;;7.87;7.13;;;17.60;42.30;;;16.90;39.85;99002.66;5068348;28;20567;-81
2021/09/21 13:58:26;;;;;;;6.80;6.27;;;17.70;42.50;;;17.04;39.64;99011.50;5066337;28;20475;-84
2021/09/21 14:00:53;;;;;;;10.70;6.63;;;17.80;42.50;;;16.89;39.69;99020.13;5066846;28;20468;-77
2021/09/21 14:03:21;;;;;;;6.30;5.80;;;17.80;42.30;;;16.60;40.36;99025.34;5065375;28;20510;-84
2021/09/21 14:05:48;;;;;;;7.47;6.77;;;17.60;42.50;;;16.55;40.63;99012.38;5062819;28;20515;-76
2021/09/21 14:08:15;;;;;;;6.90;6.40;;;17.50;42.90;;;16.39;40.24;99022.88;5060993;28;20457;-80
2021/09/21 14:10:42;;;;;;;6.80;6.30;;;17.40;42.50;;;16.13;41.47;99024.84;5058559;28;20452;-78
2021/09/21 14:13:10;;;;;;;6.57;6.07;;;17.10;42.70;;;16.27;41.47;99027.41;5062303;28;20467;-79
2021/09/21 14:15:37;;;;;;;7.40;6.53;;;17.10;43.00;;;16.29;40.85;99006.19;5063989;28;20540;-83
2021/09/21 14:18:04;;;;;;;7.17;6.57;;;17.20;42.60;;;16.31;41.11;99020.47;5085891;28;20499;-81
2021/09/21 14:20:32;;;;;;;7.93;7.23;;;17.20;42.70;;;16.09;40.49;99020.09;5079275;28;20477;-77
2021/09/21 14:22:59;;;;;;;7.00;6.40;;;17.00;42.10;;;15.96;40.70;99013.72;5071563;28;20537;-77
2021/09/21 14:25:27;;;;;;;7.73;7.03;;;16.90;42.10;;;15.89;40.67;99012.94;5069295;28;20506;-72
2021/09/21 14:27:55;;;;;;;7.03;6.33;;;16.80;42.10;;;16.00;40.74;99008.66;5083880;28;20455;-84
2021/09/21 14:30:25;;;;;;;7.17;6.57;;;16.80;42.30;;;15.92;39.96;99003.50;5079579;28;20454;-81
2021/09/21 14:32:52;;;;;;;6.73;6.27;;;16.80;41.80;;;15.96;40.60;99007.44;5075622;28;20471;-84
2021/09/21 14:35:22;;;;;;;7.63;7.03;;;16.80;42.00;;;15.92;39.74;99006.22;5084077;28;20532;-80
2021/09/21 14:37:53;;;;;;;8.10;7.40;;;16.80;41.80;;;15.93;40.67;99007.88;5069772;28;20472;-76
2021/09/21 14:40:21;;;;;;;7.07;6.50;;;16.80;42.20;;;15.71;40.12;99005.59;5067065;28;20477;-79
2021/09/21 14:42:49;;;;;;;7.00;6.40;;;16.70;41.90;;;15.73;40.79;98998.00;5079438;28;20453;-79
2021/09/21 14:45:17;;;;;;;7.30;6.57;;;16.60;41.90;;;15.90;39.78;98997.44;5082020;28;20462;-81
2021/09/21 14:47:47;;;;;;;7.40;6.80;;;16.70;41.90;;;15.73;40.74;98992.56;5085415;28;20456;-81
2021/09/21 14:50:19;;;;;;;7.83;6.80;;;16.70;42.10;;;16.18;40.63;98998.81;5082272;28;20487;-78
2021/09/21 14:52:49;;;;;;;7.07;6.20;;;16.90;42.40;;;16.24;39.96;99003.34;5080611;28;20475;-78
2021/09/21 14:55:18;;;;;;;7.60;6.90;;;17.00;42.20;;;15.97;40.59;99014.53;5079899;28;20557;-76
2021/09/21 14:57:45;;;;;;;7.80;6.90;;;16.90;42.00;;;16.03;40.00;99013.66;5081244;28;20474;-83
2021/09/21 15:00:17;;;;;;;6.83;6.20;;;16.90;41.90;;;16.26;39.60;99006.66;5079836;28;20495;-79
2021/09/21 15:02:44;;;;;;;6.67;6.17;;;17.10;42.00;;;16.16;40.88;99007.22;5097906;28;20453;-77
2021/09/21 15:05:12;;;;;;;7.50;6.90;;;17.00;42.30;;;15.90;41.46;99002.91;5077129;28;20580;-79
2021/09/21 15:07:39;;;;;;;6.57;6.03;;;16.90;42.40;;;16.07;41.57;99006.69;5103996;28;20460;-78
2021/09/21 15:10:09;;;;;;;7.30;6.77;;;16.80;42.60;;;15.93;41.17;98997.00;5085847;28;20486;-82
2021/09/21 15:12:37;;;;;;;6.70;6.20;;;16.80;42.60;;;15.84;41.09;98999.97;5089474;28;20449;-78
2021/09/21 15:15:08;;;;;;;7.33;6.63;;;16.80;42.40;;;15.91;41.97;98985.47;5085965;28;20706;-78
2021/09/21 15:17:36;;;;;;;7.90;7.20;;;16.70;42.70;;;16.04;40.30;98959.97;5089963;28;20455;-79
2021/09/21 15:20:04;;;;;;;7.80;7.20;;;16.90;42.20;;;15.94;40.74;98968.69;5088923;28;20551;-77
2021/09/21 15:22:32;;;;;;;7.30;6.70;;;16.70;42.10;;;15.84;41.25;98983.63;5082644;28;20457;-77
2021/09/21 15:25:00;;;;;;;7.50;6.90;;;16.70;42.60;;;15.89;41.40;98990.31;5085633;28;20568;-77
2021/09/21 15:27:27;;;;;;;8.23;7.43;;;16.80;42.50;;;15.83;41.35;98994.75;5080424;28;20461;-82
2021/09/21 15:29:56;;;;;;;7.70;7.00;;;16.70;42.40;;;15.84;41.19;99008.13;5082309;28;20514;-83
2021/09/21 15:32:23;;;;;;;7.90;7.20;;;16.70;42.60;;;15.93;41.98;98999.72;5083930;28;20446;-79
2021/09/21 15:34:50;;;;;;;7.10;6.50;;;16.70;42.90;;;15.77;41.96;99010.13;5087490;28;20472;-82
2021/09/21 15:37:18;;;;;;;8.23;7.53;;;16.70;43.00;;;15.67;41.50;99004.34;5058720;28;20528;-75
2021/09/21 15:39:46;;;;;;;7.10;6.47;;;16.60;42.60;;;15.61;41.29;99002.53;5071145;28;20788;-82
2021/09/21 15:42:13;;;;;;;7.37;6.80;;;16.50;42.40;;;15.62;41.37;99009.63;5061040;28;20522;-77
2021/09/21 15:44:41;;;;;;;7.70;7.10;;;16.50;42.40;;;15.43;41.41;99015.88;5066146;28;20539;-78
2021/09/21 15:47:09;;;;;;;8.13;7.33;;;16.40;42.40;;;15.40;42.15;99010.06;5078958;28;20480;-77
2021/09/21 15:49:38;;;;;;;7.63;6.90;;;16.30;42.90;;;15.42;42.09;99005.22;5075220;28;20452;-79
2021/09/21 15:52:07;;;;;;;8.00;7.30;;;16.30;42.80;;;15.31;42.21;99006.75;5073675;28;20498;-79
2021/09/21 15:54:34;;;;;;;8.10;7.40;;;16.20;42.60;;;15.27;42.32;99022.72;5070231;28;20471;-76
2021/09/21 15:57:02;;;;;;;7.53;6.93;;;16.10;42.90;;;15.20;42.59;99026.56;5079321;28;20457;-82
2021/09/21 15:59:29;;;;;;;7.73;7.03;;;16.10;43.00;;;15.09;42.81;99023.47;5081428;28;20481;-76
2021/09/21 16:01:56;;;;;;;8.13;7.33;;;16.00;42.80;;;15.04;42.63;99025.19;5066331;28;20466;-76
2021/09/21 16:04:25;;;;;;;7.60;6.90;;;15.90;42.80;;;14.90;42.96;99022.56;5062635;28;20869;-77
2021/09/21 16:06:52;;;;;;;7.77;7.10;;;15.80;42.90;;;14.87;42.54;99018.41;5068163;28;20500;-78
2021/09/21 16:09:19;;;;;;;8.20;7.50;;;15.80;43.00;;;14.86;42.96;99030.34;5070805;28;20510;-75
2021/09/21 16:11:46;;;;;;;7.60;6.90;;;15.70;42.90;;;14.78;43.65;99030.59;5068881;28;20472;-77
2021/09/21 16:14:13;;;;;;;8.40;7.63;;;15.60;43.10;;;14.62;43.87;99036.50;5072860;28;20575;-78
2021/09/21 16:16:41;;;;;;;7.47;6.87;;;15.50;43.30;;;14.55;45.08;99041.97;5065296;28;20461;-74
2021/09/21 16:19:09;;;;;;;7.47;6.87;;;15.40;43.70;;;14.49;45.70;99042.84;5063078;28;20457;-75
2021/09/21 16:21:38;;;;;;;6.23;5.80;;;15.40;44.10;;;14.39;45.53;99049.56;5065405;28;20464;-76
2021/09/21 16:24:06;;;;;;;7.57;6.90;;;15.30;44.10;;;14.38;45.83;99047.06;5063910;28;20492;-74
2021/09/21 16:26:34;;;;;;;8.27;7.50;;;15.30;44.30;;;14.13;46.43;99051.31;5064815;28;20496;-77
2021/09/21 16:29:01;;;;;;;8.27;7.60;;;15.10;44.50;;;14.05;47.52;99057.00;5058506;28;20544;-73
2021/09/21 16:31:28;;;;;;;7.97;6.57;;;15.00;44.70;;;13.91;48.22;99063.50;5065121;28;20548;-73
2021/09/21 16:33:55;;;;;;;8.43;7.73;;;14.90;45.00;;;13.86;48.43;99061.41;5061327;28;20460;-73
2021/09/21 16:36:23;;;;;;;8.33;7.63;;;14.80;45.20;;;13.68;48.45;99064.78;5063006;28;20461;-73
2021/09/21 16:38:53;;;;;;;9.20;7.10;;;14.60;45.10;;;13.63;48.87;99061.88;5063136;28;20547;-73
2021/09/21 16:41:20;;;;;;;8.00;7.30;;;14.60;45.30;;;13.65;48.86;99070.63;5066747;28;20472;-69
2021/09/21 16:43:49;;;;;;;7.57;6.87;;;14.50;45.60;;;13.60;49.94;99058.53;5062913;28;20637;-70
2021/09/21 16:46:19;;;;;;;7.17;6.57;;;14.50;45.80;;;13.56;49.60;99056.44;5060416;28;20554;-78
2021/09/21 16:48:47;;;;;;;8.17;7.17;;;14.50;45.70;;;13.41;50.14;99060.16;5058769;28;20457;-77
2021/09/21 16:51:17;;;;;;;19.03;17.17;;;14.30;45.90;;;13.45;50.52;99066.88;5068871;28;20449;-78
2021/09/21 16:53:44;;;;;;;14.03;12.63;;;14.30;46.30;;;13.26;51.85;99059.53;5068003;28;20549;-78
2021/09/21 16:56:13;;;;;;;13.40;12.23;;;14.20;46.70;;;13.07;51.92;99067.44;5067063;28;20471;-80
2021/09/21 16:58:40;;;;;;;10.03;9.13;;;14.10;46.60;;;12.84;51.96;99059.66;5071461;28;20466;-79
2021/09/21 17:01:09;;;;;;;9.77;8.93;;;14.00;46.70;;;12.84;53.29;99086.78;5088371;28;20484;-81
2021/09/21 17:03:38;;;;;;;10.47;9.30;;;13.90;46.90;;;12.72;53.75;99095.50;5061636;28;20527;-79
2021/09/21 17:06:11;;;;;;;11.30;10.30;;;13.70;47.30;;;12.66;54.39;99111.75;5060973;28;21065;-80
2021/09/21 17:08:40;;;;;;;9.90;9.10;;;13.60;47.60;;;12.37;55.00;99114.53;5076441;28;20460;-79
2021/09/21 17:11:07;;;;;;;10.20;9.40;;;13.40;47.80;;;12.25;56.38;99121.56;5061228;28;20978;-71
2021/09/21 17:13:36;;;;;;;11.03;9.87;;;13.30;48.20;;;12.07;57.22;99120.19;5062173;28;20526;-78
2021/09/21 17:16:03;;;;;;;10.80;9.80;;;13.10;48.40;;;12.04;57.34;99115.16;5056893;28;20541;-78
2021/09/21 17:18:30;;;;;;;12.17;11.07;;;13.10;48.90;;;11.88;57.94;99111.69;5059838;28;20490;-78
2021/09/21 17:20:58;;;;;;;11.33;10.13;;;13.00;49.00;;;11.83;58.69;99125.00;5058542;28;21029;-78
2021/09/21 17:23:25;;;;;;;11.23;10.13;;;12.90;49.20;;;11.71;59.32;99123.84;5060976;28;20983;-78
2021/09/21 17:25:52;;;;;;;11.33;10.23;;;12.80;49.40;;;11.67;59.50;99125.28;5063402;28;20489;-78
2021/09/21 17:28:19;;;;;;;11.77;10.57;;;12.70;49.60;;;11.56;59.40;99102.28;5062869;28;20465;-78
2021/09/21 17:30:48;;;;;;;11.60;10.60;;;12.60;49.90;;;11.44;60.34;99129.03;5065064;28;20465;-80
2021/09/21 17:33:16;;;;;;;11.40;10.30;;;12.50;49.90;;;11.38;60.98;99127.09;5069963;28;20465;-79
2021/09/21 17:35:44;;;;;;;11.53;10.43;;;12.40;50.10;;;11.37;61.22;99130.84;5069320;28;20487;-79
2021/09/21 17:38:11;;;;;;;10.90;9.90;;;12.40;50.40;;;11.20;61.57;99125.69;5067391;28;20966;-78
2021/09/21 17:40:38;;;;;;;12.17;11.07;;;12.20;50.50;;;11.03;62.13;99131.34;5072819;28;20660;-79
2021/09/21 17:43:06;;;;;;;12.10;11.10;;;12.10;50.70;;;11.01;61.96;99132.53;5068995;28;20577;-80
2021/09/21 17:45:36;;;;;;;10.70;9.77;;;12.00;50.80;;;10.79;62.92;99118.16;5070655;28;20472;-79
2021/09/21 17:48:16;;;;;;;12.87;10.83;;;11.90;51.00;;;10.81;63.81;99122.34;5065236;28;20460;-77
2021/09/21 17:50:43;;;;;;;12.27;11.17;;;11.80;51.20;;;10.56;62.61;99119.13;5062863;28;20493;-79
2021/09/21 17:53:10;;;;;;;12.07;10.97;;;11.70;51.20;;;10.79;62.72;99139.78;5066847;28;20468;-78
2021/09/21 17:55:38;;;;;;;11.57;10.47;;;11.80;51.30;;;10.88;62.76;99138.66;5075315;28;20508;-79
2021/09/21 17:58:05;;;;;;;12.10;11.07;;;11.80;51.30;;;10.72;63.19;99139.69;5072690;28;20570;-79
2021/09/21 18:00:34;;;;;;;12.47;11.23;;;11.70;51.20;;;10.74;63.25;99138.50;5073695;28;20464;-79
2021/09/21 18:03:02;;;;;;;11.50;10.50;;;11.70;51.30;;;10.59;63.41;99151.19;5072473;28;20496;-76
2021/09/21 18:05:31;;;;;;;13.20;10.77;;;11.60;51.30;;;10.41;63.58;99129.94;5071130;28;20481;-79
2021/09/21 18:07:59;;;;;;;12.27;11.07;;;11.60;51.50;;;10.61;63.30;99149.13;5073474;28;20869;-78
2021/09/21 18:10:27;;;;;;;12.20;11.00;;;11.60;51.50;;;10.49;63.99;99144.19;5070503;28;20445;-78
2021/09/21 18:12:54;;;;;;;11.23;10.23;;;11.50;51.60;;;10.62;63.91;99131.88;5076682;28;20490;-79
2021/09/21 18:16:36;;;;;;;12.40;11.30;;;11.60;51.70;;;10.57;64.32;99139.72;5074358;28;20476;-79
2021/09/21 18:20:16;;;;;;;11.40;10.40;;;11.50;51.60;;;10.51;64.29;99116.16;5065611;28;20457;-79
2021/09/21 18:23:16;;;;;;;11.57;10.57;;;11.60;51.60;;;10.32;64.51;99137.28;5010882;28;20978;-79
2021/09/21 18:25:45;;;;;;;12.50;11.17;;;11.40;51.90;;;10.51;63.59;99143.16;5011747;28;20557;-79
2021/09/21 18:28:14;;;;;;;20.03;11.87;;;11.40;51.90;;;10.59;63.74;99156.59;5056599;28;20488;-75
2021/09/21 18:30:41;;;;;;;13.70;12.33;;;11.50;51.80;;;10.56;63.87;99138.88;5069419;28;20488;-77
2021/09/21 18:33:09;;;;;;;13.87;12.57;;;11.50;51.80;;;10.63;62.91;99130.84;5066789;28;20562;-75
2021/09/21 18:35:38;;;;;;;14.00;12.70;;;11.60;51.50;;;10.66;63.06;99137.75;5076252;28;20479;-74
2021/09/21 18:38:08;;;;;;;13.10;11.90;;;11.60;51.50;;;10.60;62.94;99133.94;5071445;28;20496;-76
2021/09/21 18:40:39;;;;;;;12.80;11.50;;;11.60;51.40;;;10.39;62.69;99127.41;5067817;28;20480;-75
2021/09/21 18:43:25;;;;;;;13.47;12.07;;;11.50;51.50;;;10.34;64.61;99135.22;5074377;28;20551;-77
2021/09/21 18:45:55;;;;;;;12.67;11.43;;;11.40;51.70;;;10.33;64.39;99142.50;5068728;28;20477;-79
2021/09/21 18:48:23;;;;;;;13.10;10.80;;;11.40;51.90;;;10.43;64.65;99141.41;5068112;28;20899;-79
2021/09/21 18:50:52;;;;;;;11.87;10.77;;;11.40;51.90;;;10.38;64.51;99127.59;5070517;28;20448;-79
2021/09/21 18:53:25;;;;;;;11.80;10.77;;;11.40;52.10;;;10.27;65.57;99135.13;5068213;28;20845;-79
2021/09/21 18:55:54;;;;;;;13.27;12.07;;;11.30;52.40;;;10.31;65.46;99133.75;5069060;28;20512;-78
2021/09/21 18:58:24;;;;;;;12.47;11.37;;;11.30;52.80;;;10.21;65.64;99128.59;5077468;28;20466;-79
2021/09/21 19:00:52;;;;;;;14.30;12.80;;;11.30;52.70;;;10.19;66.32;99138.75;5073115;28;20460;-80
2021/09/21 19:03:22;;;;;;;12.20;10.97;;;11.20;52.90;;;10.21;67.13;99150.22;5075558;28;20552;-81
2021/09/21 19:05:59;;;;;;;12.80;11.53;;;11.20;53.20;;;10.18;66.97;99139.78;5072111;28;20480;-79
2021/09/21 19:08:26;;;;;;;14.23;12.60;;;11.20;53.30;;;10.11;66.89;99146.97;5068711;28;20836;-79
2021/09/21 19:10:54;;;;;;;12.17;11.17;;;11.20;53.70;;;10.14;68.43;99143.88;5076163;28;20560;-77
2021/09/21 19:13:21;;;;;;;12.07;11.07;;;11.10;53.90;;;10.10;68.39;99137.19;5068032;28;20461;-78
2021/09/21 19:15:49;;;;;;;12.53;11.33;;;11.10;53.90;;;10.09;68.27;99143.63;5074736;28;20480;-77
2021/09/21 19:18:19;;;;;;;12.47;11.27;;;11.10;54.00;;;9.88;68.04;99125.44;5075578;28;20460;-77
2021/09/21 19:20:49;;;;;;;13.83;12.23;;;11.00;54.10;;;9.95;68.87;99157.94;5065929;28;20500;-79
2021/09/21 19:23:19;;;;;;;12.97;11.77;;;11.00;54.40;;;9.89;69.10;99146.81;5070109;28;20453;-80
2021/09/21 19:25:47;;;;;;;13.67;12.37;;;10.90;54.70;;;9.99;69.51;99156.53;5073718;28;20468;-79
2021/09/21 19:28:20;;;;;;;13.67;12.27;;;11.00;54.90;;;9.90;69.84;99159.28;5066299;28;20448;-69
2021/09/21 19:30:48;;;;;;;14.13;12.83;;;11.00;55.20;;;9.88;70.39;99164.03;5064062;28;20453;-70
2021/09/21 19:33:16;;;;;;;12.40;10.93;;;10.90;55.40;;;9.80;70.37;99164.13;5067249;28;20456;-77
2021/09/21 19:35:43;;;;;;;13.50;12.13;;;10.90;55.50;;;9.86;70.18;99162.56;5061760;28;20571;-78
2021/09/21 19:38:12;;;;;;;12.77;11.57;;;10.90;55.30;;;9.81;70.53;99165.81;5058303;28;20628;-79
2021/09/21 19:40:40;;;;;;;15.03;13.20;;;10.90;55.40;;;9.73;70.93;99182.91;5065794;28;20468;-77
2021/09/21 19:43:07;;;;;;;15.27;13.60;;;10.80;55.60;;;9.71;71.54;99186.81;5065279;28;20454;-79
2021/09/21 19:45:35;;;;;;;15.37;13.70;;;10.80;56.00;;;9.81;71.15;99191.94;5069358;28;21105;-77
2021/09/21 19:48:05;;;;;;;14.63;12.10;;;10.80;56.10;;;9.64;71.64;99176.75;5065397;28;20496;-75
2021/09/21 19:50:32;;;;;;;13.10;11.80;;;10.80;56.40;;;9.50;72.89;99174.84;5061362;28;20866;-76
2021/09/21 19:52:59;;;;;;;13.73;12.43;;;10.60;56.40;;;9.37;73.45;99190.78;5067526;28;20492;-77
2021/09/21 19:55:27;;;;;;;16.03;14.10;;;10.50;56.80;;;9.29;73.25;99186.28;5065855;28;20958;-79
2021/09/21 19:57:56;;;;;;;15.50;12.60;;;10.40;56.90;;;9.29;73.77;99180.88;5084801;28;20525;-77
2021/09/21 20:00:26;;;;;;;15.47;13.97;;;10.30;57.20;;;9.23;74.04;99179.72;5065390;28;20501;-76
2021/09/21 20:02:55;;;;;;;14.73;12.63;;;10.30;57.30;;;9.21;74.12;99170.97;5062157;28;20514;-78